createdAt,value
2019-01-14T00:01:00.602Z,6.80
2019-01-14T00:03:29.771Z,6.80
2019-01-14T00:05:58.863Z,6.80
2019-01-14T00:08:28.033Z,6.70
2019-01-14T00:10:57.129Z,6.60
2019-01-14T00:13:27.174Z,6.50
2019-01-14T00:15:56.397Z,6.50
2019-01-14T00:18:25.559Z,6.40
2019-01-14T00:20:54.655Z,6.40
2019-01-14T00:23:23.758Z,6.40
2019-01-14T00:25:52.855Z,6.50
2019-01-14T00:28:21.950Z,6.50
2019-01-14T00:30:51.036Z,6.40
2019-01-14T00:33:20.142Z,6.40
2019-01-14T00:35:49.223Z,6.30
2019-01-14T00:38:18.355Z,6.20
2019-01-14T00:40:47.457Z,6.10
2019-01-14T00:43:16.578Z,6.00
2019-01-14T00:45:45.686Z,6.00
2019-01-14T00:48:14.774Z,5.90
2019-01-14T00:50:43.887Z,5.90
2019-01-14T00:53:12.968Z,5.80
2019-01-14T00:55:42.086Z,5.70
2019-01-14T00:58:11.188Z,5.70
2019-01-14T01:00:40.287Z,5.70
2019-01-14T01:03:09.399Z,5.70
2019-01-14T01:05:38.498Z,5.60
2019-01-14T01:08:07.606Z,5.60
2019-01-14T01:10:36.770Z,5.60
2019-01-14T01:13:05.932Z,5.60
2019-01-14T01:15:35.013Z,5.60
2019-01-14T01:18:05.090Z,5.60
2019-01-14T01:20:34.363Z,5.50
2019-01-14T01:23:03.458Z,5.50
2019-01-14T01:25:32.540Z,5.50
2019-01-14T01:28:01.738Z,5.50
2019-01-14T01:30:30.910Z,5.40
2019-01-14T01:33:00.014Z,5.40
2019-01-14T01:35:29.112Z,5.30
2019-01-14T01:37:58.222Z,5.30
2019-01-14T01:40:27.309Z,5.30
2019-01-14T01:42:56.394Z,5.30
2019-01-14T01:45:25.573Z,5.30
2019-01-14T01:47:54.658Z,5.30
2019-01-14T01:50:23.752Z,5.20
2019-01-14T01:52:52.845Z,5.20
2019-01-14T01:55:21.933Z,5.20
2019-01-14T01:57:51.124Z,5.10
2019-01-14T02:00:21.791Z,5.10
2019-01-14T02:02:51.556Z,5.00
2019-01-14T02:05:20.955Z,5.10
2019-01-14T02:07:50.026Z,5.00
2019-01-14T02:10:21.114Z,5.00
2019-01-14T02:12:50.289Z,5.00
2019-01-14T02:15:20.741Z,4.90
2019-01-14T02:17:49.966Z,4.90
2019-01-14T02:20:19.777Z,4.90
2019-01-14T02:22:48.852Z,4.90
2019-01-14T02:25:18.663Z,4.90
2019-01-14T02:27:47.754Z,4.90
2019-01-14T02:30:21.793Z,4.90
2019-01-14T02:32:50.956Z,5.00
2019-01-14T02:35:20.074Z,5.00
2019-01-14T02:37:49.141Z,4.90
2019-01-14T02:40:20.363Z,4.90
2019-01-14T02:42:49.535Z,4.80
2019-01-14T02:45:18.721Z,4.80
2019-01-14T02:47:47.811Z,4.90
2019-01-14T02:50:17.295Z,5.00
2019-01-14T02:52:46.376Z,5.10
2019-01-14T02:55:15.485Z,5.10
2019-01-14T02:57:44.577Z,5.20
2019-01-14T03:00:19.980Z,5.20
2019-01-14T03:02:49.068Z,5.10
2019-01-14T03:05:18.239Z,5.00
2019-01-14T03:07:47.696Z,5.00
2019-01-14T03:10:16.885Z,4.90
2019-01-14T03:12:45.969Z,4.80
2019-01-14T03:15:15.923Z,4.80
2019-01-14T03:17:45.086Z,4.70
2019-01-14T03:20:14.854Z,4.80
2019-01-14T03:22:44.059Z,4.80
2019-01-14T03:25:13.870Z,4.80
2019-01-14T03:27:43.068Z,4.80
2019-01-14T03:30:14.672Z,4.80
2019-01-14T03:32:43.853Z,4.90
2019-01-14T03:35:12.941Z,4.90
2019-01-14T03:37:42.034Z,5.00
2019-01-14T03:40:13.274Z,5.10
2019-01-14T03:42:42.499Z,5.10
2019-01-14T03:45:12.267Z,5.20
2019-01-14T03:47:41.448Z,5.30
2019-01-14T03:50:16.586Z,5.40
2019-01-14T03:52:45.886Z,5.40
2019-01-14T03:55:15.050Z,5.40
2019-01-14T03:57:44.447Z,5.40
2019-01-14T04:00:15.475Z,5.50
2019-01-14T04:02:44.658Z,5.50
2019-01-14T04:05:14.434Z,5.50
2019-01-14T04:07:43.877Z,5.50
2019-01-14T04:10:14.911Z,5.50
2019-01-14T04:12:44.041Z,5.50
2019-01-14T04:15:15.139Z,5.50
2019-01-14T04:17:44.512Z,5.50
2019-01-14T04:20:14.993Z,5.40
2019-01-14T04:22:44.174Z,5.30
2019-01-14T04:25:13.439Z,5.10
2019-01-14T04:27:42.508Z,5.10
2019-01-14T04:30:20.598Z,5.10
2019-01-14T04:32:49.752Z,5.00
2019-01-14T04:35:19.891Z,5.00
2019-01-14T04:37:48.992Z,5.00
2019-01-14T04:40:18.112Z,5.10
2019-01-14T04:42:47.294Z,5.10
2019-01-14T04:45:16.621Z,5.10
2019-01-14T04:47:45.706Z,5.20
2019-01-14T04:50:17.400Z,5.20
2019-01-14T04:52:46.480Z,5.20
2019-01-14T04:55:15.640Z,5.20
2019-01-14T04:57:44.724Z,5.20
2019-01-14T05:00:16.472Z,5.20
2019-01-14T05:02:45.655Z,5.30
2019-01-14T05:05:14.945Z,5.40
2019-01-14T05:07:44.029Z,5.30
2019-01-14T05:10:13.980Z,5.40
2019-01-14T05:12:43.088Z,5.50
2019-01-14T05:15:12.613Z,5.50
2019-01-14T05:17:41.710Z,5.50
2019-01-14T05:20:17.058Z,5.50
2019-01-14T05:22:46.141Z,5.50
2019-01-14T05:25:15.243Z,5.40
2019-01-14T05:27:44.350Z,5.40
2019-01-14T05:30:13.747Z,5.40
2019-01-14T05:32:42.830Z,5.40
2019-01-14T05:35:12.167Z,5.40
2019-01-14T05:37:41.249Z,5.40
2019-01-14T05:40:13.640Z,5.40
2019-01-14T05:42:42.719Z,5.40
2019-01-14T05:45:11.997Z,5.40
2019-01-14T05:47:41.094Z,5.40
2019-01-14T05:50:11.590Z,5.40
2019-01-14T05:52:40.685Z,5.40
2019-01-14T05:55:10.179Z,5.50
2019-01-14T05:57:39.309Z,5.40
2019-01-14T06:00:15.917Z,5.50
2019-01-14T06:02:45.141Z,5.60
2019-01-14T06:05:14.240Z,5.60
2019-01-14T06:07:45.028Z,5.60
2019-01-14T06:10:14.150Z,5.60
2019-01-14T06:12:43.225Z,5.60
2019-01-14T06:15:13.143Z,5.60
2019-01-14T06:17:42.244Z,5.50
2019-01-14T06:20:13.259Z,5.50
2019-01-14T06:22:42.337Z,5.40
2019-01-14T06:25:12.143Z,5.30
2019-01-14T06:27:41.217Z,5.20
2019-01-14T06:30:14.660Z,5.10
2019-01-14T06:32:43.766Z,5.00
2019-01-14T06:35:13.102Z,5.00
2019-01-14T06:37:42.247Z,4.90
2019-01-14T06:40:12.570Z,4.70
2019-01-14T06:42:41.654Z,4.70
2019-01-14T06:45:11.137Z,4.50
2019-01-14T06:47:40.310Z,4.40
2019-01-14T06:50:11.217Z,4.40
2019-01-14T06:52:40.331Z,4.30
2019-01-14T06:55:09.776Z,4.30
2019-01-14T06:57:39.004Z,4.40
2019-01-14T07:00:10.285Z,4.40
2019-01-14T07:02:39.377Z,4.50
2019-01-14T07:05:08.982Z,4.50
2019-01-14T07:07:38.077Z,4.50
2019-01-14T07:10:08.978Z,4.50
2019-01-14T07:12:38.085Z,4.50
2019-01-14T07:15:07.618Z,4.60
2019-01-14T07:17:36.731Z,4.50
2019-01-14T07:20:06.318Z,4.60
2019-01-14T07:22:35.413Z,4.60
2019-01-14T07:25:05.978Z,4.60
2019-01-14T07:27:35.054Z,4.60
2019-01-14T07:30:05.830Z,4.60
2019-01-14T07:32:34.941Z,4.60
2019-01-14T07:35:04.462Z,4.70
2019-01-14T07:37:33.578Z,4.80
2019-01-14T07:40:02.765Z,4.80
2019-01-14T07:42:31.935Z,4.90
2019-01-14T07:45:01.060Z,5.00
2019-01-14T07:47:30.709Z,5.00
2019-01-14T07:49:59.909Z,5.10
2019-01-14T07:52:29.001Z,5.10
2019-01-14T07:54:58.402Z,5.20
2019-01-14T07:57:27.643Z,5.20
2019-01-14T07:59:56.835Z,5.30
2019-01-14T08:02:25.979Z,5.20
2019-01-14T08:04:55.367Z,5.20
2019-01-14T08:07:24.479Z,5.30
2019-01-14T08:09:53.627Z,5.30
2019-01-14T08:12:22.721Z,5.40
2019-01-14T08:14:51.812Z,5.40
2019-01-14T08:17:20.902Z,5.40
2019-01-14T08:19:50.158Z,5.40
2019-01-14T08:22:19.247Z,5.50
2019-01-14T08:24:48.367Z,5.50
2019-01-14T08:27:17.467Z,5.50
2019-01-14T08:29:46.565Z,5.60
2019-01-14T08:32:15.699Z,5.60
2019-01-14T08:34:44.821Z,5.50
2019-01-14T08:37:13.901Z,5.40
2019-01-14T08:39:43.007Z,5.30
2019-01-14T08:42:12.769Z,5.30
2019-01-14T08:44:43.729Z,5.30
2019-01-14T08:47:12.839Z,5.30
2019-01-14T08:49:41.947Z,5.40
2019-01-14T08:52:11.039Z,5.60
2019-01-14T08:54:40.160Z,5.80
2019-01-14T08:57:09.271Z,5.90
2019-01-14T08:59:38.353Z,6.00
2019-01-14T09:02:07.457Z,6.10
2019-01-14T09:04:36.553Z,6.00
2019-01-14T09:07:05.649Z,6.10
2019-01-14T09:09:34.848Z,6.00
2019-01-14T09:12:04.106Z,6.00
2019-01-14T09:14:33.233Z,6.00
2019-01-14T09:17:02.389Z,6.00
2019-01-14T09:19:31.546Z,5.90
2019-01-14T09:22:00.639Z,5.90
2019-01-14T09:24:29.719Z,5.80
2019-01-14T09:26:58.862Z,5.80
2019-01-14T09:29:28.109Z,5.80
2019-01-14T09:31:57.670Z,5.70
2019-01-14T09:34:26.825Z,5.70
2019-01-14T09:36:55.922Z,5.70
2019-01-14T09:39:25.020Z,5.60
2019-01-14T09:41:54.127Z,5.60
2019-01-14T09:44:23.324Z,5.60
2019-01-14T09:46:52.444Z,5.70
2019-01-14T09:49:21.614Z,5.60
2019-01-14T09:51:50.731Z,5.70
2019-01-14T09:54:19.917Z,5.70
2019-01-14T09:56:49.202Z,5.60
2019-01-14T09:59:18.286Z,5.60
2019-01-14T10:01:47.477Z,5.70
2019-01-14T10:04:16.741Z,5.70
2019-01-14T10:06:45.825Z,5.80
2019-01-14T10:09:14.981Z,5.90
2019-01-14T10:11:44.226Z,5.90
2019-01-14T10:14:13.340Z,6.00
2019-01-14T10:16:43.322Z,6.00
2019-01-14T10:19:12.530Z,6.10
2019-01-14T10:21:41.633Z,6.20
2019-01-14T10:24:10.741Z,6.30
2019-01-14T10:26:39.837Z,6.40
2019-01-14T10:29:08.992Z,6.40
2019-01-14T10:31:38.072Z,6.40
2019-01-14T10:34:07.257Z,6.30
2019-01-14T10:36:36.440Z,6.30
2019-01-14T10:39:07.558Z,6.40
2019-01-14T10:41:36.666Z,6.40
2019-01-14T10:44:05.793Z,6.40
2019-01-14T10:46:34.940Z,6.40
2019-01-14T10:49:06.832Z,6.40
2019-01-14T10:51:34.962Z,6.40
2019-01-14T10:54:04.117Z,6.50
2019-01-14T10:56:33.237Z,6.60
2019-01-14T10:59:02.571Z,6.60
2019-01-14T11:01:31.844Z,6.60
2019-01-14T11:04:00.936Z,6.60
2019-01-14T11:06:30.086Z,6.60
2019-01-14T11:09:05.719Z,6.60
2019-01-14T11:11:30.011Z,6.60
2019-01-14T11:13:59.170Z,6.60
2019-01-14T11:16:28.346Z,6.60
2019-01-14T11:18:57.447Z,6.60
2019-01-14T11:21:26.577Z,6.60
2019-01-14T11:23:55.694Z,6.70
2019-01-14T11:26:24.914Z,6.70
2019-01-14T11:28:54.042Z,6.60
2019-01-14T11:31:23.152Z,6.60
2019-01-14T11:33:52.452Z,6.50
2019-01-14T11:36:21.565Z,6.60
2019-01-14T11:38:51.976Z,6.70
2019-01-14T11:41:22.358Z,6.70
2019-01-14T11:43:51.532Z,6.80
2019-01-14T11:46:20.600Z,6.80
2019-01-14T11:48:49.694Z,6.70
2019-01-14T11:51:18.864Z,6.70
2019-01-14T11:53:47.959Z,6.60
2019-01-14T11:56:17.058Z,6.60
2019-01-14T11:58:46.227Z,6.70
2019-01-14T12:01:15.313Z,6.70
2019-01-14T12:03:44.394Z,6.80
2019-01-14T12:06:13.476Z,6.90
2019-01-14T12:08:42.562Z,6.90
2019-01-14T12:11:11.687Z,6.90
2019-01-14T12:13:40.854Z,6.90
2019-01-14T12:16:09.959Z,6.70
2019-01-14T12:18:39.080Z,6.70
2019-01-14T12:21:08.200Z,6.70
2019-01-14T12:23:37.344Z,6.80
2019-01-14T12:26:06.456Z,6.90
2019-01-14T12:28:35.580Z,6.90
2019-01-14T12:31:04.664Z,7.00
2019-01-14T12:33:33.746Z,7.00
2019-01-14T12:36:02.896Z,7.10
2019-01-14T12:38:31.973Z,7.20
2019-01-14T12:41:01.069Z,7.20
2019-01-14T12:43:30.175Z,7.40
2019-01-14T12:45:59.352Z,7.40
2019-01-14T12:48:28.443Z,7.30
2019-01-14T12:50:57.537Z,7.30
2019-01-14T12:53:26.618Z,7.30
2019-01-14T12:55:55.699Z,7.10
2019-01-14T12:58:24.772Z,7.10
2019-01-14T13:00:53.883Z,7.00
2019-01-14T13:03:22.992Z,7.00
2019-01-14T13:05:52.236Z,7.20
2019-01-14T13:08:21.333Z,7.30
2019-01-14T13:10:50.407Z,7.50
2019-01-14T13:13:19.486Z,7.60
2019-01-14T13:15:48.587Z,7.70
2019-01-14T13:18:17.688Z,7.70
2019-01-14T13:20:46.769Z,7.60
2019-01-14T13:23:15.875Z,7.10
2019-01-14T13:25:44.948Z,6.70
2019-01-14T13:28:14.046Z,6.50
2019-01-14T13:30:43.148Z,6.00
2019-01-14T13:33:12.241Z,5.80
2019-01-14T13:35:41.414Z,5.60
2019-01-14T13:38:10.537Z,5.50
2019-01-14T13:40:39.701Z,5.30
2019-01-14T13:43:08.846Z,5.20
2019-01-14T13:45:37.962Z,5.00
2019-01-14T13:48:07.059Z,5.00
2019-01-14T13:50:36.175Z,4.90
2019-01-14T13:53:05.263Z,4.90
2019-01-14T13:55:34.440Z,4.80
2019-01-14T13:58:03.569Z,4.80
2019-01-14T14:00:32.669Z,4.80
2019-01-14T14:03:01.775Z,4.80
2019-01-14T14:05:30.879Z,4.80
2019-01-14T14:08:00.067Z,4.70
2019-01-14T14:10:30.975Z,4.80
2019-01-14T14:13:00.069Z,4.80
2019-01-14T14:15:29.359Z,4.80
2019-01-14T14:17:58.449Z,4.80
2019-01-14T14:20:27.553Z,4.80
2019-01-14T14:22:56.737Z,4.80
2019-01-14T14:25:25.841Z,4.70
2019-01-14T14:27:54.939Z,4.70
2019-01-14T14:30:26.577Z,4.70
2019-01-14T14:32:55.779Z,4.80
2019-01-14T14:35:24.915Z,4.80
2019-01-14T14:38:00.591Z,4.80
2019-01-14T14:40:24.879Z,4.80
2019-01-14T14:42:54.722Z,4.90
2019-01-14T14:45:24.125Z,4.80
2019-01-14T14:47:53.499Z,4.80
2019-01-14T14:50:22.733Z,4.70
2019-01-14T14:53:10.995Z,4.60
2019-01-14T14:55:40.263Z,4.40
2019-01-14T14:58:09.609Z,4.40
2019-01-14T15:00:38.801Z,4.30
2019-01-14T15:03:07.905Z,4.30
2019-01-14T15:05:36.985Z,4.20
2019-01-14T15:08:06.079Z,4.20
2019-01-14T15:10:35.197Z,4.30
2019-01-14T15:13:04.343Z,4.20
2019-01-14T15:15:33.558Z,4.30
2019-01-14T15:18:02.783Z,4.30
2019-01-14T15:20:31.906Z,4.20
2019-01-14T15:23:01.098Z,4.20
2019-01-14T15:25:30.167Z,4.20
2019-01-14T15:27:59.287Z,4.20
2019-01-14T15:30:30.221Z,4.20
2019-01-14T15:32:59.279Z,4.20
2019-01-14T15:35:28.499Z,4.10
2019-01-14T15:37:57.602Z,4.10
2019-01-14T15:40:26.935Z,4.20
2019-01-14T15:42:56.047Z,4.30
2019-01-14T15:45:26.179Z,4.50
2019-01-14T15:47:55.288Z,4.60
2019-01-14T15:50:24.398Z,4.60
2019-01-14T15:52:53.587Z,4.70
2019-01-14T15:55:27.056Z,4.80
2019-01-14T15:57:56.275Z,4.80
2019-01-14T16:00:26.815Z,4.90
2019-01-14T16:02:56.298Z,4.90
2019-01-14T16:05:25.602Z,5.00
2019-01-14T16:07:54.937Z,5.00
2019-01-14T16:10:25.468Z,5.00
2019-01-14T16:12:54.574Z,5.00
2019-01-14T16:15:23.841Z,5.00
2019-01-14T16:17:52.949Z,5.00
2019-01-14T16:20:24.114Z,5.00
2019-01-14T16:22:53.439Z,5.00
2019-01-14T16:25:22.597Z,5.10
2019-01-14T16:27:51.724Z,5.10
2019-01-14T16:30:23.067Z,5.10
2019-01-14T16:32:52.287Z,5.00
2019-01-14T16:35:21.439Z,5.00
2019-01-14T16:37:50.549Z,5.00
2019-01-14T16:40:19.740Z,5.00
2019-01-14T16:42:48.828Z,5.00
2019-01-14T16:45:20.103Z,5.00
2019-01-14T16:47:49.200Z,5.00
2019-01-14T16:50:18.437Z,4.90
2019-01-14T16:52:47.591Z,4.80
2019-01-14T16:55:19.255Z,4.70
2019-01-14T16:57:48.386Z,4.60
2019-01-14T17:00:18.296Z,4.50
2019-01-14T17:02:47.479Z,4.40
2019-01-14T17:05:16.882Z,4.30
2019-01-14T17:07:45.989Z,4.30
2019-01-14T17:10:15.643Z,4.20
2019-01-14T17:12:44.920Z,4.20
2019-01-14T17:15:14.520Z,4.10
2019-01-14T17:17:43.639Z,4.00
2019-01-14T17:20:16.120Z,4.00
2019-01-14T17:22:45.317Z,3.90
2019-01-14T17:25:14.782Z,3.90
2019-01-14T17:27:45.264Z,3.90
2019-01-14T17:30:15.423Z,3.80
2019-01-14T17:32:44.699Z,3.70
2019-01-14T17:35:14.481Z,3.80
2019-01-14T17:37:43.604Z,3.80
2019-01-14T17:40:17.651Z,3.80
2019-01-14T17:42:46.763Z,3.80
2019-01-14T17:45:15.898Z,3.80
2019-01-14T17:47:47.295Z,3.90
2019-01-14T17:50:18.519Z,3.80
2019-01-14T17:52:47.695Z,3.80
2019-01-14T17:55:16.986Z,3.80
2019-01-14T17:57:46.115Z,3.70
2019-01-14T18:00:20.787Z,3.70
2019-01-14T18:02:51.921Z,3.50
2019-01-14T18:05:21.016Z,3.40
2019-01-14T18:07:50.146Z,3.30
2019-01-14T18:10:20.061Z,3.20
2019-01-14T18:12:49.281Z,3.20
2019-01-14T18:15:18.393Z,3.10
2019-01-14T18:17:47.715Z,3.10
2019-01-14T18:20:18.867Z,3.00
2019-01-14T18:22:48.085Z,3.00
2019-01-14T18:25:17.256Z,3.00
2019-01-14T18:27:46.508Z,3.00
2019-01-14T18:30:20.579Z,2.90
2019-01-14T18:32:49.839Z,2.80
2019-01-14T18:35:18.982Z,2.70
2019-01-14T18:37:48.128Z,2.60
2019-01-14T18:40:19.033Z,2.50
2019-01-14T18:42:48.887Z,2.30
2019-01-14T18:45:19.570Z,2.20
2019-01-14T18:47:49.365Z,2.10
2019-01-14T18:50:20.840Z,2.00
2019-01-14T18:52:50.831Z,2.00
2019-01-14T18:55:20.077Z,2.00
2019-01-14T18:57:52.028Z,2.10
2019-01-14T19:00:23.099Z,2.30
2019-01-14T19:02:52.293Z,2.40
2019-01-14T19:05:21.466Z,2.50
2019-01-14T19:07:50.666Z,2.60
2019-01-14T19:10:19.991Z,2.60
2019-01-14T19:12:49.127Z,2.60
2019-01-14T19:15:20.597Z,2.60
2019-01-14T19:17:50.409Z,2.50
2019-01-14T19:20:21.979Z,2.60
2019-01-14T19:22:51.464Z,2.60
2019-01-14T19:25:20.634Z,2.60
2019-01-14T19:27:49.808Z,2.50
2019-01-14T19:30:20.901Z,2.30
2019-01-14T19:32:50.098Z,2.20
2019-01-14T19:35:19.489Z,2.10
2019-01-14T19:37:49.007Z,2.10
2019-01-14T19:40:20.191Z,2.10
2019-01-14T19:42:49.751Z,2.20
2019-01-14T19:45:21.048Z,2.40
2019-01-14T19:47:50.410Z,2.40
2019-01-14T19:50:24.580Z,2.60
2019-01-14T19:52:55.242Z,2.60
2019-01-14T19:55:25.172Z,2.70
2019-01-14T19:57:56.881Z,2.70
2019-01-14T20:00:31.431Z,2.70
2019-01-14T20:03:00.828Z,2.70
2019-01-14T20:05:31.578Z,2.60
2019-01-14T20:08:00.937Z,2.60
2019-01-14T20:10:32.450Z,2.50
2019-01-14T20:13:01.761Z,2.50
2019-01-14T20:15:31.633Z,2.50
2019-01-14T20:18:01.330Z,2.50
2019-01-14T20:20:31.512Z,2.50
2019-01-14T20:23:00.824Z,2.50
2019-01-14T20:25:30.401Z,2.50
2019-01-14T20:27:59.987Z,2.50
2019-01-14T20:30:29.699Z,2.40
2019-01-14T20:32:59.434Z,2.30
2019-01-14T20:35:28.733Z,2.20
2019-01-14T20:37:58.465Z,2.10
2019-01-14T20:40:28.130Z,2.00
2019-01-14T20:42:57.751Z,1.90
2019-01-14T20:45:27.084Z,1.80
2019-01-14T20:47:56.416Z,1.70
2019-01-14T20:50:25.729Z,1.60
2019-01-14T20:52:55.026Z,1.60
2019-01-14T20:55:24.617Z,1.60
2019-01-14T20:57:54.320Z,1.60
2019-01-14T21:00:25.411Z,1.70
2019-01-14T21:02:55.867Z,1.80
2019-01-14T21:05:26.037Z,1.80
2019-01-14T21:07:55.524Z,1.90
2019-01-14T21:10:26.097Z,1.90
2019-01-14T21:12:55.483Z,1.90
2019-01-14T21:15:24.847Z,1.80
2019-01-14T21:17:54.266Z,1.70
2019-01-14T21:20:25.031Z,1.70
2019-01-14T21:22:55.423Z,1.60
2019-01-14T21:25:24.784Z,1.60
2019-01-14T21:27:54.170Z,1.50
2019-01-14T21:30:25.764Z,1.50
2019-01-14T21:32:55.045Z,1.40
2019-01-14T21:35:24.296Z,1.40
2019-01-14T21:37:55.608Z,1.40
2019-01-14T21:40:30.512Z,1.40
2019-01-14T21:42:59.816Z,1.50
2019-01-14T21:45:29.027Z,1.60
2019-01-14T21:47:58.258Z,1.70
2019-01-14T21:50:29.159Z,1.80
2019-01-14T21:52:58.534Z,1.90
2019-01-14T21:55:27.731Z,1.90
2019-01-14T21:57:56.988Z,1.90
2019-01-14T22:00:26.182Z,2.00
2019-01-14T22:02:55.422Z,1.90
2019-01-14T22:05:24.559Z,1.90
2019-01-14T22:07:53.859Z,1.90
2019-01-14T22:10:26.475Z,2.00
2019-01-14T22:12:55.775Z,2.00
2019-01-14T22:15:25.051Z,2.00
2019-01-14T22:17:54.231Z,2.10
2019-01-14T22:20:28.347Z,2.10
2019-01-14T22:22:57.649Z,2.10
2019-01-14T22:25:26.854Z,2.20
2019-01-14T22:27:57.641Z,2.20
2019-01-14T22:30:32.153Z,2.20
2019-01-14T22:33:01.297Z,2.20
2019-01-14T22:35:30.474Z,2.20
2019-01-14T22:37:59.779Z,2.20
2019-01-14T22:40:28.895Z,2.10
2019-01-14T22:42:58.018Z,2.00
2019-01-14T22:45:27.194Z,1.90
2019-01-14T22:47:56.327Z,1.90
2019-01-14T22:50:25.595Z,1.80
2019-01-14T22:52:55.162Z,1.80
2019-01-14T22:55:24.390Z,1.80
2019-01-14T22:57:53.491Z,1.80
2019-01-14T23:00:51.907Z,2.00
2019-01-14T23:03:21.146Z,2.00
2019-01-14T23:05:50.608Z,2.10
2019-01-14T23:08:19.778Z,2.20
2019-01-14T23:10:48.859Z,2.20
2019-01-14T23:13:18.059Z,2.20
2019-01-14T23:15:47.163Z,2.20
2019-01-14T23:18:16.283Z,2.30
2019-01-14T23:20:45.387Z,2.30
2019-01-14T23:23:14.517Z,2.30
2019-01-14T23:25:43.630Z,2.30
2019-01-14T23:28:12.785Z,2.40
2019-01-14T23:30:41.889Z,2.40
2019-01-14T23:33:10.957Z,2.40
2019-01-14T23:35:40.080Z,2.40
2019-01-14T23:38:09.186Z,2.40
2019-01-14T23:40:38.278Z,2.40
2019-01-14T23:43:07.671Z,2.40
2019-01-14T23:45:36.779Z,2.50
2019-01-14T23:48:05.861Z,2.50
2019-01-14T23:50:34.939Z,2.50
2019-01-14T23:53:04.383Z,2.50
2019-01-14T23:55:33.486Z,2.50
2019-01-14T23:58:02.620Z,2.50
